Airfield :
LOGIN :

Register | Disclaimer

   EN    FR    IT 

 










Legend :    VFR   Marginal VFR   IFR   Intensive IFR   Very Intensive IFR
Visi :
Ceiling :
>= 8 km
>= 3000ft
5 to 8 km
1000 to 3000 ft
1500m to 5 km
500 to 1000 ft
800 to 1500m
200 to 500 ft
< 800m
< 200 ft
Symbols :   Thunderstorms  Fog  Heavy snow  Heavy precipitations  Wind > 20 kt
SIGMETs :     Misc.  Thunderstorms  Icing  Turbulence  Mountain Waves  Volcanic Ashes







- Airport Elevation : 423 ft
- IATA code : PIS
- Download approach charts


LFBI - Poitiers

CURRENT METAR :
  • 171230Z AUTO 23008KT 170V280 9999 ////// 30/09 Q1014

EXPIRED METARs :
  • 171200Z AUTO VRB05KT 9999 ////// 30/09 Q1014
  • 171130Z AUTO 24006KT 140V300 9999 ////// 30/09 Q1014
  • 171100Z AUTO 21008KT 160V290 9999 ////// 29/09 Q1015
  • 171030Z AUTO 19007KT 150V230 9999 ////// 29/10 Q1015
  • 171000Z AUTO VRB04KT 9999 ////// 28/10 Q1015

TAF TAF LFBI
Valid from the 17 at 12:00 until the 18 at 12:00 UTC


171100Z 1712/1812 23008KT CAVOK
TEMPO 1715/1722 24015G25KT
TEMPO 1800/1806 BKN015
No reported NOTAMs for that airfield.



MET'MAP, your aeronautical weather chart ! - Copyright ORBIFLY December 2007 - Disclaimer

ORBIFLY MET'MAP TEAM :

Programming & Development : Alexandra Zaïnal
Concept & Development : Baudouin d'Aumeries
Co-Development & Prog : Marc-Olivier Méhu
Technical & hardware support : Manuel Goepfert

Contact : metmap@orbifly.com




SOURCES & CREDITS :

   NOAA